<?xml version="1.0" encoding="UTF-8" standalone="no" ?>
<gpx xmlns="http://www.topografix.com/GPX/1/1" xmlns:xsi="http://www.w3.org/2001/XMLSchema-instance" xsi:schemaLocation="http://www.topografix.com/GPX/1/1 http://www.topografix.com/GPX/1/1/gpx.xsd" version="1.1" creator="VisuGPX - https://www.visugpx.com">
  <metadata>
    <name>Glaris-Engelberg(tout)</name>
  </metadata>
  <trk>
    <name><![CDATA[Glaris-Engelberg(tout)_10]]></name>
    <extensions>
      <line xmlns="http://www.topografix.com/GPX/gpx_style/0/2">
        <color>888800</color>
        <width>4</width>
      </line>
    </extensions>
    <trkseg>
      <trkpt lat="46.8752" lon="8.46683">
        <ele>2333</ele>
        <time>2021-08-12T08:18:56.233Z</time>
      </trkpt>
      <trkpt lat="46.8752" lon="8.46683">
        <ele>2333</ele>
        <time>2021-08-12T08:18:57.234Z</time>
      </trkpt>
      <trkpt lat="46.87519" lon="8.46683">
        <ele>2334</ele>
        <time>2021-08-12T08:18:58.234Z</time>
      </trkpt>
      <trkpt lat="46.87519" lon="8.46683">
        <ele>2334</ele>
        <time>2021-08-12T08:18:59.234Z</time>
      </trkpt>
      <trkpt lat="46.87519" lon="8.46683">
        <ele>2334</ele>
        <time>2021-08-12T08:19:00.234Z</time>
      </trkpt>
      <trkpt lat="46.87518" lon="8.46683">
        <ele>2335</ele>
        <time>2021-08-12T08:19:01.234Z</time>
      </trkpt>
      <trkpt lat="46.87518" lon="8.46683">
        <ele>2335</ele>
        <time>2021-08-12T08:19:02.234Z</time>
      </trkpt>
      <trkpt lat="46.87517" lon="8.46684">
        <ele>2335</ele>
        <time>2021-08-12T08:19:03.233Z</time>
      </trkpt>
      <trkpt lat="46.87517" lon="8.46684">
        <ele>2335</ele>
        <time>2021-08-12T08:19:04.233Z</time>
      </trkpt>
      <trkpt lat="46.87516" lon="8.46684">
        <ele>2335</ele>
        <time>2021-08-12T08:19:05.234Z</time>
      </trkpt>
      <trkpt lat="46.87516" lon="8.46683">
        <ele>2334</ele>
        <time>2021-08-12T08:19:06.233Z</time>
      </trkpt>
      <trkpt lat="46.87515" lon="8.46683">
        <ele>2334</ele>
        <time>2021-08-12T08:19:07.233Z</time>
      </trkpt>
      <trkpt lat="46.87515" lon="8.46683">
        <ele>2333</ele>
        <time>2021-08-12T08:19:08.233Z</time>
      </trkpt>
      <trkpt lat="46.87514" lon="8.46683">
        <ele>2332</ele>
        <time>2021-08-12T08:19:09.233Z</time>
      </trkpt>
      <trkpt lat="46.87513" lon="8.46682">
        <ele>2332</ele>
        <time>2021-08-12T08:19:10.233Z</time>
      </trkpt>
      <trkpt lat="46.87512" lon="8.46683">
        <ele>2331</ele>
        <time>2021-08-12T08:19:11.233Z</time>
      </trkpt>
      <trkpt lat="46.87512" lon="8.46683">
        <ele>2330</ele>
        <time>2021-08-12T08:19:12.233Z</time>
      </trkpt>
      <trkpt lat="46.87511" lon="8.46683">
        <ele>2330</ele>
        <time>2021-08-12T08:19:13.234Z</time>
      </trkpt>
      <trkpt lat="46.87511" lon="8.46684">
        <ele>2329</ele>
        <time>2021-08-12T08:19:14.234Z</time>
      </trkpt>
      <trkpt lat="46.87511" lon="8.46684">
        <ele>2328</ele>
        <time>2021-08-12T08:19:15.234Z</time>
      </trkpt>
      <trkpt lat="46.87511" lon="8.46684">
        <ele>2327</ele>
        <time>2021-08-12T08:19:16.233Z</time>
      </trkpt>
      <trkpt lat="46.87511" lon="8.46684">
        <ele>2327</ele>
        <time>2021-08-12T08:19:17.233Z</time>
      </trkpt>
      <trkpt lat="46.87511" lon="8.46684">
        <ele>2327</ele>
        <time>2021-08-12T08:19:18.233Z</time>
      </trkpt>
      <trkpt lat="46.87511" lon="8.46685">
        <ele>2327</ele>
        <time>2021-08-12T08:19:19.234Z</time>
      </trkpt>
      <trkpt lat="46.8751" lon="8.46685">
        <ele>2327</ele>
        <time>2021-08-12T08:19:20.234Z</time>
      </trkpt>
      <trkpt lat="46.87509" lon="8.46686">
        <ele>2327</ele>
        <time>2021-08-12T08:19:21.233Z</time>
      </trkpt>
      <trkpt lat="46.87508" lon="8.46686">
        <ele>2328</ele>
        <time>2021-08-12T08:19:22.234Z</time>
      </trkpt>
      <trkpt lat="46.87508" lon="8.46687">
        <ele>2328</ele>
        <time>2021-08-12T08:19:23.234Z</time>
      </trkpt>
      <trkpt lat="46.87507" lon="8.46688">
        <ele>2329</ele>
        <time>2021-08-12T08:19:24.234Z</time>
      </trkpt>
      <trkpt lat="46.87506" lon="8.46688">
        <ele>2329</ele>
        <time>2021-08-12T08:19:25.233Z</time>
      </trkpt>
      <trkpt lat="46.87506" lon="8.46689">
        <ele>2330</ele>
        <time>2021-08-12T08:19:26.234Z</time>
      </trkpt>
      <trkpt lat="46.87505" lon="8.46689">
        <ele>2331</ele>
        <time>2021-08-12T08:19:27.233Z</time>
      </trkpt>
      <trkpt lat="46.87504" lon="8.4669">
        <ele>2331</ele>
        <time>2021-08-12T08:19:28.233Z</time>
      </trkpt>
      <trkpt lat="46.87503" lon="8.4669">
        <ele>2332</ele>
        <time>2021-08-12T08:19:29.234Z</time>
      </trkpt>
      <trkpt lat="46.87502" lon="8.4669">
        <ele>2332</ele>
        <time>2021-08-12T08:19:30.234Z</time>
      </trkpt>
      <trkpt lat="46.87501" lon="8.4669">
        <ele>2332</ele>
        <time>2021-08-12T08:19:31.234Z</time>
      </trkpt>
      <trkpt lat="46.87501" lon="8.46691">
        <ele>2333</ele>
        <time>2021-08-12T08:19:32.234Z</time>
      </trkpt>
      <trkpt lat="46.875" lon="8.46691">
        <ele>2333</ele>
        <time>2021-08-12T08:19:33.234Z</time>
      </trkpt>
      <trkpt lat="46.87499" lon="8.46691">
        <ele>2333</ele>
        <time>2021-08-12T08:19:34.233Z</time>
      </trkpt>
      <trkpt lat="46.87498" lon="8.46692">
        <ele>2333</ele>
        <time>2021-08-12T08:19:35.234Z</time>
      </trkpt>
      <trkpt lat="46.87497" lon="8.46692">
        <ele>2333</ele>
        <time>2021-08-12T08:19:36.234Z</time>
      </trkpt>
      <trkpt lat="46.87497" lon="8.46693">
        <ele>2332</ele>
        <time>2021-08-12T08:19:37.233Z</time>
      </trkpt>
      <trkpt lat="46.87496" lon="8.46694">
        <ele>2332</ele>
        <time>2021-08-12T08:19:38.233Z</time>
      </trkpt>
      <trkpt lat="46.87495" lon="8.46694">
        <ele>2331</ele>
        <time>2021-08-12T08:19:39.234Z</time>
      </trkpt>
      <trkpt lat="46.87494" lon="8.46695">
        <ele>2331</ele>
        <time>2021-08-12T08:19:40.234Z</time>
      </trkpt>
      <trkpt lat="46.87494" lon="8.46695">
        <ele>2330</ele>
        <time>2021-08-12T08:19:41.234Z</time>
      </trkpt>
      <trkpt lat="46.87494" lon="8.46695">
        <ele>2329</ele>
        <time>2021-08-12T08:19:42.234Z</time>
      </trkpt>
      <trkpt lat="46.87494" lon="8.46694">
        <ele>2329</ele>
        <time>2021-08-12T08:19:43.234Z</time>
      </trkpt>
      <trkpt lat="46.87493" lon="8.46693">
        <ele>2329</ele>
        <time>2021-08-12T08:19:44.234Z</time>
      </trkpt>
      <trkpt lat="46.87493" lon="8.46693">
        <ele>2329</ele>
        <time>2021-08-12T08:19:45.234Z</time>
      </trkpt>
      <trkpt lat="46.87492" lon="8.46693">
        <ele>2329</ele>
        <time>2021-08-12T08:19:46.234Z</time>
      </trkpt>
      <trkpt lat="46.87492" lon="8.46693">
        <ele>2329</ele>
        <time>2021-08-12T08:19:47.234Z</time>
      </trkpt>
      <trkpt lat="46.87491" lon="8.46694">
        <ele>2329</ele>
        <time>2021-08-12T08:19:48.234Z</time>
      </trkpt>
      <trkpt lat="46.87491" lon="8.46694">
        <ele>2329</ele>
        <time>2021-08-12T08:19:49.234Z</time>
      </trkpt>
      <trkpt lat="46.87491" lon="8.46694">
        <ele>2329</ele>
        <time>2021-08-12T08:19:50.233Z</time>
      </trkpt>
      <trkpt lat="46.8749" lon="8.46694">
        <ele>2328</ele>
        <time>2021-08-12T08:19:51.234Z</time>
      </trkpt>
      <trkpt lat="46.87489" lon="8.46693">
        <ele>2328</ele>
        <time>2021-08-12T08:19:52.234Z</time>
      </trkpt>
      <trkpt lat="46.87489" lon="8.46693">
        <ele>2328</ele>
        <time>2021-08-12T08:19:53.234Z</time>
      </trkpt>
      <trkpt lat="46.87488" lon="8.46693">
        <ele>2328</ele>
        <time>2021-08-12T08:19:54.234Z</time>
      </trkpt>
      <trkpt lat="46.87487" lon="8.46692">
        <ele>2327</ele>
        <time>2021-08-12T08:19:55.234Z</time>
      </trkpt>
      <trkpt lat="46.87486" lon="8.46692">
        <ele>2327</ele>
        <time>2021-08-12T08:19:56.234Z</time>
      </trkpt>
      <trkpt lat="46.87486" lon="8.46692">
        <ele>2327</ele>
        <time>2021-08-12T08:19:57.233Z</time>
      </trkpt>
      <trkpt lat="46.87485" lon="8.46692">
        <ele>2327</ele>
        <time>2021-08-12T08:19:58.233Z</time>
      </trkpt>
      <trkpt lat="46.87484" lon="8.46692">
        <ele>2326</ele>
        <time>2021-08-12T08:19:59.234Z</time>
      </trkpt>
      <trkpt lat="46.87484" lon="8.46692">
        <ele>2326</ele>
        <time>2021-08-12T08:20:00.234Z</time>
      </trkpt>
      <trkpt lat="46.87484" lon="8.46693">
        <ele>2325</ele>
        <time>2021-08-12T08:20:01.233Z</time>
      </trkpt>
      <trkpt lat="46.87483" lon="8.46693">
        <ele>2325</ele>
        <time>2021-08-12T08:20:02.234Z</time>
      </trkpt>
      <trkpt lat="46.87482" lon="8.46693">
        <ele>2324</ele>
        <time>2021-08-12T08:20:03.234Z</time>
      </trkpt>
      <trkpt lat="46.87482" lon="8.46693">
        <ele>2324</ele>
        <time>2021-08-12T08:20:04.233Z</time>
      </trkpt>
      <trkpt lat="46.87481" lon="8.46693">
        <ele>2324</ele>
        <time>2021-08-12T08:20:05.233Z</time>
      </trkpt>
      <trkpt lat="46.87481" lon="8.46693">
        <ele>2325</ele>
        <time>2021-08-12T08:20:06.233Z</time>
      </trkpt>
      <trkpt lat="46.8748" lon="8.46693">
        <ele>2325</ele>
        <time>2021-08-12T08:20:07.233Z</time>
      </trkpt>
      <trkpt lat="46.8748" lon="8.46694">
        <ele>2325</ele>
        <time>2021-08-12T08:20:08.234Z</time>
      </trkpt>
      <trkpt lat="46.87479" lon="8.46694">
        <ele>2325</ele>
        <time>2021-08-12T08:20:09.233Z</time>
      </trkpt>
      <trkpt lat="46.87478" lon="8.46694">
        <ele>2325</ele>
        <time>2021-08-12T08:20:10.234Z</time>
      </trkpt>
      <trkpt lat="46.87477" lon="8.46694">
        <ele>2325</ele>
        <time>2021-08-12T08:20:11.234Z</time>
      </trkpt>
      <trkpt lat="46.87476" lon="8.46694">
        <ele>2325</ele>
        <time>2021-08-12T08:20:12.233Z</time>
      </trkpt>
      <trkpt lat="46.87475" lon="8.46695">
        <ele>2324</ele>
        <time>2021-08-12T08:20:13.233Z</time>
      </trkpt>
      <trkpt lat="46.87474" lon="8.46696">
        <ele>2323</ele>
        <time>2021-08-12T08:20:14.234Z</time>
      </trkpt>
      <trkpt lat="46.87473" lon="8.46697">
        <ele>2323</ele>
        <time>2021-08-12T08:20:15.233Z</time>
      </trkpt>
      <trkpt lat="46.87472" lon="8.46698">
        <ele>2323</ele>
        <time>2021-08-12T08:20:16.233Z</time>
      </trkpt>
      <trkpt lat="46.87471" lon="8.467">
        <ele>2322</ele>
        <time>2021-08-12T08:20:17.234Z</time>
      </trkpt>
      <trkpt lat="46.87471" lon="8.46701">
        <ele>2322</ele>
        <time>2021-08-12T08:20:18.233Z</time>
      </trkpt>
      <trkpt lat="46.8747" lon="8.46703">
        <ele>2322</ele>
        <time>2021-08-12T08:20:19.233Z</time>
      </trkpt>
      <trkpt lat="46.87469" lon="8.46704">
        <ele>2322</ele>
        <time>2021-08-12T08:20:20.234Z</time>
      </trkpt>
      <trkpt lat="46.87469" lon="8.46705">
        <ele>2322</ele>
        <time>2021-08-12T08:20:21.233Z</time>
      </trkpt>
      <trkpt lat="46.87468" lon="8.46705">
        <ele>2322</ele>
        <time>2021-08-12T08:20:22.233Z</time>
      </trkpt>
      <trkpt lat="46.87467" lon="8.46707">
        <ele>2322</ele>
        <time>2021-08-12T08:20:23.233Z</time>
      </trkpt>
      <trkpt lat="46.87466" lon="8.46708">
        <ele>2322</ele>
        <time>2021-08-12T08:20:24.233Z</time>
      </trkpt>
      <trkpt lat="46.87465" lon="8.4671">
        <ele>2322</ele>
        <time>2021-08-12T08:20:25.233Z</time>
      </trkpt>
      <trkpt lat="46.87465" lon="8.4671">
        <ele>2322</ele>
        <time>2021-08-12T08:20:26.233Z</time>
      </trkpt>
      <trkpt lat="46.87464" lon="8.46711">
        <ele>2322</ele>
        <time>2021-08-12T08:20:27.233Z</time>
      </trkpt>
      <trkpt lat="46.87463" lon="8.46712">
        <ele>2322</ele>
        <time>2021-08-12T08:20:28.234Z</time>
      </trkpt>
      <trkpt lat="46.87462" lon="8.46713">
        <ele>2322</ele>
        <time>2021-08-12T08:20:29.233Z</time>
      </trkpt>
      <trkpt lat="46.87462" lon="8.46715">
        <ele>2321</ele>
        <time>2021-08-12T08:20:30.233Z</time>
      </trkpt>
      <trkpt lat="46.87461" lon="8.46716">
        <ele>2321</ele>
        <time>2021-08-12T08:20:31.234Z</time>
      </trkpt>
      <trkpt lat="46.87461" lon="8.46717">
        <ele>2320</ele>
        <time>2021-08-12T08:20:32.233Z</time>
      </trkpt>
      <trkpt lat="46.8746" lon="8.46717">
        <ele>2320</ele>
        <time>2021-08-12T08:20:33.234Z</time>
      </trkpt>
      <trkpt lat="46.8746" lon="8.46718">
        <ele>2320</ele>
        <time>2021-08-12T08:20:34.234Z</time>
      </trkpt>
      <trkpt lat="46.87459" lon="8.46718">
        <ele>2319</ele>
        <time>2021-08-12T08:20:35.234Z</time>
      </trkpt>
      <trkpt lat="46.87459" lon="8.46718">
        <ele>2319</ele>
        <time>2021-08-12T08:20:36.233Z</time>
      </trkpt>
      <trkpt lat="46.87458" lon="8.46718">
        <ele>2319</ele>
        <time>2021-08-12T08:20:37.234Z</time>
      </trkpt>
      <trkpt lat="46.87458" lon="8.46717">
        <ele>2319</ele>
        <time>2021-08-12T08:20:38.234Z</time>
      </trkpt>
      <trkpt lat="46.87458" lon="8.46717">
        <ele>2318</ele>
        <time>2021-08-12T08:20:39.234Z</time>
      </trkpt>
      <trkpt lat="46.87457" lon="8.46716">
        <ele>2318</ele>
        <time>2021-08-12T08:20:40.234Z</time>
      </trkpt>
      <trkpt lat="46.87457" lon="8.46716">
        <ele>2318</ele>
        <time>2021-08-12T08:20:41.234Z</time>
      </trkpt>
      <trkpt lat="46.87457" lon="8.46716">
        <ele>2318</ele>
        <time>2021-08-12T08:20:42.233Z</time>
      </trkpt>
      <trkpt lat="46.87456" lon="8.46715">
        <ele>2318</ele>
        <time>2021-08-12T08:20:43.234Z</time>
      </trkpt>
      <trkpt lat="46.87456" lon="8.46714">
        <ele>2318</ele>
        <time>2021-08-12T08:20:44.234Z</time>
      </trkpt>
      <trkpt lat="46.87455" lon="8.46712">
        <ele>2319</ele>
        <time>2021-08-12T08:20:45.233Z</time>
      </trkpt>
      <trkpt lat="46.87454" lon="8.46711">
        <ele>2319</ele>
        <time>2021-08-12T08:20:46.234Z</time>
      </trkpt>
      <trkpt lat="46.87453" lon="8.46711">
        <ele>2319</ele>
        <time>2021-08-12T08:20:47.234Z</time>
      </trkpt>
      <trkpt lat="46.87453" lon="8.4671">
        <ele>2319</ele>
        <time>2021-08-12T08:20:48.233Z</time>
      </trkpt>
      <trkpt lat="46.87452" lon="8.4671">
        <ele>2319</ele>
        <time>2021-08-12T08:20:49.234Z</time>
      </trkpt>
      <trkpt lat="46.87452" lon="8.4671">
        <ele>2319</ele>
        <time>2021-08-12T08:20:50.234Z</time>
      </trkpt>
      <trkpt lat="46.87451" lon="8.4671">
        <ele>2319</ele>
        <time>2021-08-12T08:20:51.234Z</time>
      </trkpt>
      <trkpt lat="46.8745" lon="8.4671">
        <ele>2319</ele>
        <time>2021-08-12T08:20:52.233Z</time>
      </trkpt>
      <trkpt lat="46.87449" lon="8.4671">
        <ele>2320</ele>
        <time>2021-08-12T08:20:53.234Z</time>
      </trkpt>
      <trkpt lat="46.87448" lon="8.4671">
        <ele>2319</ele>
        <time>2021-08-12T08:20:54.234Z</time>
      </trkpt>
      <trkpt lat="46.87448" lon="8.46711">
        <ele>2319</ele>
        <time>2021-08-12T08:20:55.233Z</time>
      </trkpt>
      <trkpt lat="46.87447" lon="8.46711">
        <ele>2319</ele>
        <time>2021-08-12T08:20:56.234Z</time>
      </trkpt>
      <trkpt lat="46.87446" lon="8.46711">
        <ele>2319</ele>
        <time>2021-08-12T08:20:57.234Z</time>
      </trkpt>
      <trkpt lat="46.87446" lon="8.46711">
        <ele>2318</ele>
        <time>2021-08-12T08:20:58.233Z</time>
      </trkpt>
      <trkpt lat="46.87445" lon="8.46712">
        <ele>2318</ele>
        <time>2021-08-12T08:20:59.234Z</time>
      </trkpt>
      <trkpt lat="46.87444" lon="8.46712">
        <ele>2317</ele>
        <time>2021-08-12T08:21:00.233Z</time>
      </trkpt>
      <trkpt lat="46.87443" lon="8.46712">
        <ele>2317</ele>
        <time>2021-08-12T08:21:01.234Z</time>
      </trkpt>
      <trkpt lat="46.87442" lon="8.46713">
        <ele>2317</ele>
        <time>2021-08-12T08:21:02.234Z</time>
      </trkpt>
      <trkpt lat="46.87441" lon="8.46713">
        <ele>2316</ele>
        <time>2021-08-12T08:21:03.233Z</time>
      </trkpt>
      <trkpt lat="46.8744" lon="8.46712">
        <ele>2316</ele>
        <time>2021-08-12T08:21:04.234Z</time>
      </trkpt>
      <trkpt lat="46.87439" lon="8.46712">
        <ele>2315</ele>
        <time>2021-08-12T08:21:05.234Z</time>
      </trkpt>
      <trkpt lat="46.87437" lon="8.46712">
        <ele>2315</ele>
        <time>2021-08-12T08:21:06.234Z</time>
      </trkpt>
      <trkpt lat="46.87435" lon="8.46712">
        <ele>2314</ele>
        <time>2021-08-12T08:21:07.234Z</time>
      </trkpt>
      <trkpt lat="46.87435" lon="8.46711">
        <ele>2314</ele>
        <time>2021-08-12T08:21:08.233Z</time>
      </trkpt>
      <trkpt lat="46.87434" lon="8.46711">
        <ele>2314</ele>
        <time>2021-08-12T08:21:09.234Z</time>
      </trkpt>
      <trkpt lat="46.87434" lon="8.46711">
        <ele>2313</ele>
        <time>2021-08-12T08:21:10.233Z</time>
      </trkpt>
      <trkpt lat="46.87433" lon="8.46711">
        <ele>2313</ele>
        <time>2021-08-12T08:21:11.233Z</time>
      </trkpt>
      <trkpt lat="46.87432" lon="8.46712">
        <ele>2312</ele>
        <time>2021-08-12T08:21:12.234Z</time>
      </trkpt>
      <trkpt lat="46.87431" lon="8.46712">
        <ele>2312</ele>
        <time>2021-08-12T08:21:13.234Z</time>
      </trkpt>
      <trkpt lat="46.87429" lon="8.46711">
        <ele>2311</ele>
        <time>2021-08-12T08:21:14.234Z</time>
      </trkpt>
      <trkpt lat="46.87428" lon="8.46711">
        <ele>2311</ele>
        <time>2021-08-12T08:21:15.234Z</time>
      </trkpt>
      <trkpt lat="46.87428" lon="8.46711">
        <ele>2310</ele>
        <time>2021-08-12T08:21:16.234Z</time>
      </trkpt>
      <trkpt lat="46.87427" lon="8.46711">
        <ele>2310</ele>
        <time>2021-08-12T08:21:17.233Z</time>
      </trkpt>
      <trkpt lat="46.87427" lon="8.46711">
        <ele>2310</ele>
        <time>2021-08-12T08:21:18.234Z</time>
      </trkpt>
      <trkpt lat="46.87426" lon="8.46711">
        <ele>2310</ele>
        <time>2021-08-12T08:21:19.234Z</time>
      </trkpt>
      <trkpt lat="46.87426" lon="8.4671">
        <ele>2310</ele>
        <time>2021-08-12T08:21:20.234Z</time>
      </trkpt>
      <trkpt lat="46.87425" lon="8.4671">
        <ele>2310</ele>
        <time>2021-08-12T08:21:21.233Z</time>
      </trkpt>
      <trkpt lat="46.87424" lon="8.4671">
        <ele>2310</ele>
        <time>2021-08-12T08:21:22.234Z</time>
      </trkpt>
      <trkpt lat="46.87423" lon="8.46709">
        <ele>2310</ele>
        <time>2021-08-12T08:21:23.234Z</time>
      </trkpt>
      <trkpt lat="46.87423" lon="8.46709">
        <ele>2310</ele>
        <time>2021-08-12T08:21:24.234Z</time>
      </trkpt>
      <trkpt lat="46.87422" lon="8.46709">
        <ele>2310</ele>
        <time>2021-08-12T08:21:25.233Z</time>
      </trkpt>
      <trkpt lat="46.87422" lon="8.46709">
        <ele>2310</ele>
        <time>2021-08-12T08:21:26.233Z</time>
      </trkpt>
      <trkpt lat="46.87421" lon="8.46708">
        <ele>2310</ele>
        <time>2021-08-12T08:21:27.233Z</time>
      </trkpt>
      <trkpt lat="46.8742" lon="8.46709">
        <ele>2310</ele>
        <time>2021-08-12T08:21:28.234Z</time>
      </trkpt>
      <trkpt lat="46.8742" lon="8.46709">
        <ele>2310</ele>
        <time>2021-08-12T08:21:29.234Z</time>
      </trkpt>
      <trkpt lat="46.87421" lon="8.4671">
        <ele>2313</ele>
        <time>2021-08-12T08:21:30.234Z</time>
      </trkpt>
      <trkpt lat="46.87421" lon="8.4671">
        <ele>2313</ele>
        <time>2021-08-12T08:21:31.235Z</time>
      </trkpt>
      <trkpt lat="46.87419" lon="8.46711">
        <ele>2312</ele>
        <time>2021-08-12T08:21:32.236Z</time>
      </trkpt>
      <trkpt lat="46.87419" lon="8.46711">
        <ele>2312</ele>
        <time>2021-08-12T08:21:33.235Z</time>
      </trkpt>
      <trkpt lat="46.87419" lon="8.46712">
        <ele>2312</ele>
        <time>2021-08-12T08:21:34.236Z</time>
      </trkpt>
      <trkpt lat="46.87419" lon="8.46713">
        <ele>2313</ele>
        <time>2021-08-12T08:21:35.235Z</time>
      </trkpt>
      <trkpt lat="46.87418" lon="8.46713">
        <ele>2312</ele>
        <time>2021-08-12T08:21:36.236Z</time>
      </trkpt>
      <trkpt lat="46.87418" lon="8.46714">
        <ele>2312</ele>
        <time>2021-08-12T08:21:37.237Z</time>
      </trkpt>
      <trkpt lat="46.87417" lon="8.46715">
        <ele>2312</ele>
        <time>2021-08-12T08:21:38.236Z</time>
      </trkpt>
      <trkpt lat="46.87416" lon="8.46714">
        <ele>2312</ele>
        <time>2021-08-12T08:21:39.236Z</time>
      </trkpt>
      <trkpt lat="46.87416" lon="8.46715">
        <ele>2313</ele>
        <time>2021-08-12T08:21:40.237Z</time>
      </trkpt>
      <trkpt lat="46.87415" lon="8.46716">
        <ele>2312</ele>
        <time>2021-08-12T08:21:41.237Z</time>
      </trkpt>
      <trkpt lat="46.87414" lon="8.46716">
        <ele>2313</ele>
        <time>2021-08-12T08:21:42.236Z</time>
      </trkpt>
      <trkpt lat="46.87413" lon="8.46717">
        <ele>2312</ele>
        <time>2021-08-12T08:21:43.236Z</time>
      </trkpt>
      <trkpt lat="46.87413" lon="8.46717">
        <ele>2312</ele>
        <time>2021-08-12T08:21:44.237Z</time>
      </trkpt>
      <trkpt lat="46.87412" lon="8.46718">
        <ele>2312</ele>
        <time>2021-08-12T08:21:45.236Z</time>
      </trkpt>
      <trkpt lat="46.87411" lon="8.46718">
        <ele>2312</ele>
        <time>2021-08-12T08:21:46.236Z</time>
      </trkpt>
      <trkpt lat="46.87411" lon="8.46718">
        <ele>2312</ele>
        <time>2021-08-12T08:21:47.237Z</time>
      </trkpt>
      <trkpt lat="46.8741" lon="8.46718">
        <ele>2311</ele>
        <time>2021-08-12T08:21:48.236Z</time>
      </trkpt>
      <trkpt lat="46.87409" lon="8.46719">
        <ele>2312</ele>
        <time>2021-08-12T08:21:49.237Z</time>
      </trkpt>
      <trkpt lat="46.87409" lon="8.46719">
        <ele>2312</ele>
        <time>2021-08-12T08:21:50.237Z</time>
      </trkpt>
      <trkpt lat="46.87408" lon="8.4672">
        <ele>2313</ele>
        <time>2021-08-12T08:21:51.237Z</time>
      </trkpt>
      <trkpt lat="46.87408" lon="8.46721">
        <ele>2313</ele>
        <time>2021-08-12T08:21:52.237Z</time>
      </trkpt>
      <trkpt lat="46.87407" lon="8.46721">
        <ele>2313</ele>
        <time>2021-08-12T08:21:53.236Z</time>
      </trkpt>
      <trkpt lat="46.87406" lon="8.46721">
        <ele>2314</ele>
        <time>2021-08-12T08:21:54.237Z</time>
      </trkpt>
      <trkpt lat="46.87406" lon="8.4672">
        <ele>2314</ele>
        <time>2021-08-12T08:21:55.237Z</time>
      </trkpt>
      <trkpt lat="46.87405" lon="8.4672">
        <ele>2314</ele>
        <time>2021-08-12T08:21:56.236Z</time>
      </trkpt>
      <trkpt lat="46.87405" lon="8.4672">
        <ele>2314</ele>
        <time>2021-08-12T08:21:57.237Z</time>
      </trkpt>
      <trkpt lat="46.87404" lon="8.4672">
        <ele>2315</ele>
        <time>2021-08-12T08:21:58.237Z</time>
      </trkpt>
      <trkpt lat="46.87403" lon="8.46719">
        <ele>2315</ele>
        <time>2021-08-12T08:21:59.237Z</time>
      </trkpt>
      <trkpt lat="46.87402" lon="8.46719">
        <ele>2316</ele>
        <time>2021-08-12T08:22:00.236Z</time>
      </trkpt>
      <trkpt lat="46.87401" lon="8.4672">
        <ele>2317</ele>
        <time>2021-08-12T08:22:01.236Z</time>
      </trkpt>
      <trkpt lat="46.87401" lon="8.4672">
        <ele>2317</ele>
        <time>2021-08-12T08:22:02.237Z</time>
      </trkpt>
      <trkpt lat="46.874" lon="8.46721">
        <ele>2317</ele>
        <time>2021-08-12T08:22:03.237Z</time>
      </trkpt>
      <trkpt lat="46.874" lon="8.46722">
        <ele>2317</ele>
        <time>2021-08-12T08:22:04.237Z</time>
      </trkpt>
      <trkpt lat="46.87399" lon="8.46722">
        <ele>2317</ele>
        <time>2021-08-12T08:22:05.237Z</time>
      </trkpt>
      <trkpt lat="46.874" lon="8.46723">
        <ele>2317</ele>
        <time>2021-08-12T08:22:06.237Z</time>
      </trkpt>
      <trkpt lat="46.874" lon="8.46724">
        <ele>2317</ele>
        <time>2021-08-12T08:22:07.237Z</time>
      </trkpt>
      <trkpt lat="46.874" lon="8.46724">
        <ele>2317</ele>
        <time>2021-08-12T08:22:08.237Z</time>
      </trkpt>
      <trkpt lat="46.87399" lon="8.46725">
        <ele>2317</ele>
        <time>2021-08-12T08:22:09.238Z</time>
      </trkpt>
      <trkpt lat="46.87399" lon="8.46726">
        <ele>2317</ele>
        <time>2021-08-12T08:22:10.237Z</time>
      </trkpt>
      <trkpt lat="46.87399" lon="8.46725">
        <ele>2317</ele>
        <time>2021-08-12T08:22:11.237Z</time>
      </trkpt>
      <trkpt lat="46.87397" lon="8.46724">
        <ele>2318</ele>
        <time>2021-08-12T08:22:12.238Z</time>
      </trkpt>
      <trkpt lat="46.87397" lon="8.46724">
        <ele>2318</ele>
        <time>2021-08-12T08:22:13.238Z</time>
      </trkpt>
      <trkpt lat="46.87397" lon="8.46725">
        <ele>2318</ele>
        <time>2021-08-12T08:22:14.238Z</time>
      </trkpt>
      <trkpt lat="46.87396" lon="8.46725">
        <ele>2318</ele>
        <time>2021-08-12T08:22:15.238Z</time>
      </trkpt>
      <trkpt lat="46.87396" lon="8.46726">
        <ele>2318</ele>
        <time>2021-08-12T08:22:16.237Z</time>
      </trkpt>
      <trkpt lat="46.87395" lon="8.46727">
        <ele>2318</ele>
        <time>2021-08-12T08:22:17.238Z</time>
      </trkpt>
      <trkpt lat="46.87395" lon="8.46727">
        <ele>2318</ele>
        <time>2021-08-12T08:22:18.238Z</time>
      </trkpt>
      <trkpt lat="46.87394" lon="8.46728">
        <ele>2318</ele>
        <time>2021-08-12T08:22:19.237Z</time>
      </trkpt>
      <trkpt lat="46.87393" lon="8.46728">
        <ele>2318</ele>
        <time>2021-08-12T08:22:20.238Z</time>
      </trkpt>
      <trkpt lat="46.87393" lon="8.46729">
        <ele>2317</ele>
        <time>2021-08-12T08:22:21.237Z</time>
      </trkpt>
      <trkpt lat="46.87392" lon="8.46729">
        <ele>2317</ele>
        <time>2021-08-12T08:22:22.238Z</time>
      </trkpt>
      <trkpt lat="46.87391" lon="8.4673">
        <ele>2317</ele>
        <time>2021-08-12T08:22:23.238Z</time>
      </trkpt>
      <trkpt lat="46.87391" lon="8.46731">
        <ele>2317</ele>
        <time>2021-08-12T08:22:24.238Z</time>
      </trkpt>
      <trkpt lat="46.8739" lon="8.46733">
        <ele>2317</ele>
        <time>2021-08-12T08:22:25.237Z</time>
      </trkpt>
      <trkpt lat="46.8739" lon="8.46733">
        <ele>2318</ele>
        <time>2021-08-12T08:22:26.237Z</time>
      </trkpt>
      <trkpt lat="46.8739" lon="8.46734">
        <ele>2318</ele>
        <time>2021-08-12T08:22:27.237Z</time>
      </trkpt>
      <trkpt lat="46.8739" lon="8.46734">
        <ele>2318</ele>
        <time>2021-08-12T08:22:28.238Z</time>
      </trkpt>
      <trkpt lat="46.87389" lon="8.46735">
        <ele>2316</ele>
        <time>2021-08-12T08:22:29.239Z</time>
      </trkpt>
      <trkpt lat="46.87389" lon="8.46735">
        <ele>2317</ele>
        <time>2021-08-12T08:22:30.238Z</time>
      </trkpt>
      <trkpt lat="46.87388" lon="8.46736">
        <ele>2316</ele>
        <time>2021-08-12T08:22:31.238Z</time>
      </trkpt>
      <trkpt lat="46.87388" lon="8.46736">
        <ele>2316</ele>
        <time>2021-08-12T08:22:32.238Z</time>
      </trkpt>
      <trkpt lat="46.87387" lon="8.46737">
        <ele>2315</ele>
        <time>2021-08-12T08:22:33.239Z</time>
      </trkpt>
      <trkpt lat="46.87387" lon="8.46737">
        <ele>2315</ele>
        <time>2021-08-12T08:22:34.239Z</time>
      </trkpt>
      <trkpt lat="46.87387" lon="8.46738">
        <ele>2315</ele>
        <time>2021-08-12T08:22:35.238Z</time>
      </trkpt>
      <trkpt lat="46.87386" lon="8.46738">
        <ele>2315</ele>
        <time>2021-08-12T08:22:36.239Z</time>
      </trkpt>
      <trkpt lat="46.87386" lon="8.46737">
        <ele>2315</ele>
        <time>2021-08-12T08:22:37.239Z</time>
      </trkpt>
      <trkpt lat="46.87386" lon="8.46737">
        <ele>2315</ele>
        <time>2021-08-12T08:22:38.239Z</time>
      </trkpt>
      <trkpt lat="46.87385" lon="8.46738">
        <ele>2314</ele>
        <time>2021-08-12T08:22:39.239Z</time>
      </trkpt>
      <trkpt lat="46.87385" lon="8.46739">
        <ele>2313</ele>
        <time>2021-08-12T08:22:40.238Z</time>
      </trkpt>
      <trkpt lat="46.87384" lon="8.46739">
        <ele>2313</ele>
        <time>2021-08-12T08:22:41.238Z</time>
      </trkpt>
      <trkpt lat="46.87384" lon="8.46741">
        <ele>2311</ele>
        <time>2021-08-12T08:22:42.238Z</time>
      </trkpt>
      <trkpt lat="46.87384" lon="8.46742">
        <ele>2311</ele>
        <time>2021-08-12T08:22:43.238Z</time>
      </trkpt>
      <trkpt lat="46.87384" lon="8.46742">
        <ele>2311</ele>
        <time>2021-08-12T08:22:44.238Z</time>
      </trkpt>
      <trkpt lat="46.87383" lon="8.46742">
        <ele>2311</ele>
        <time>2021-08-12T08:22:45.238Z</time>
      </trkpt>
      <trkpt lat="46.87383" lon="8.46743">
        <ele>2311</ele>
        <time>2021-08-12T08:22:46.238Z</time>
      </trkpt>
      <trkpt lat="46.87382" lon="8.46744">
        <ele>2311</ele>
        <time>2021-08-12T08:22:47.238Z</time>
      </trkpt>
      <trkpt lat="46.87382" lon="8.46744">
        <ele>2311</ele>
        <time>2021-08-12T08:22:48.238Z</time>
      </trkpt>
      <trkpt lat="46.87381" lon="8.46745">
        <ele>2311</ele>
        <time>2021-08-12T08:22:49.238Z</time>
      </trkpt>
      <trkpt lat="46.87381" lon="8.46745">
        <ele>2311</ele>
        <time>2021-08-12T08:22:50.238Z</time>
      </trkpt>
      <trkpt lat="46.8738" lon="8.46746">
        <ele>2311</ele>
        <time>2021-08-12T08:22:51.239Z</time>
      </trkpt>
      <trkpt lat="46.87379" lon="8.46746">
        <ele>2311</ele>
        <time>2021-08-12T08:22:52.239Z</time>
      </trkpt>
      <trkpt lat="46.87379" lon="8.46746">
        <ele>2311</ele>
        <time>2021-08-12T08:22:53.239Z</time>
      </trkpt>
      <trkpt lat="46.87378" lon="8.46747">
        <ele>2311</ele>
        <time>2021-08-12T08:22:54.239Z</time>
      </trkpt>
      <trkpt lat="46.87378" lon="8.46747">
        <ele>2311</ele>
        <time>2021-08-12T08:22:55.239Z</time>
      </trkpt>
      <trkpt lat="46.87377" lon="8.46748">
        <ele>2311</ele>
        <time>2021-08-12T08:22:56.239Z</time>
      </trkpt>
      <trkpt lat="46.87377" lon="8.46749">
        <ele>2312</ele>
        <time>2021-08-12T08:22:57.238Z</time>
      </trkpt>
      <trkpt lat="46.87376" lon="8.46749">
        <ele>2312</ele>
        <time>2021-08-12T08:22:58.239Z</time>
      </trkpt>
      <trkpt lat="46.87375" lon="8.4675">
        <ele>2312</ele>
        <time>2021-08-12T08:22:59.239Z</time>
      </trkpt>
      <trkpt lat="46.87375" lon="8.4675">
        <ele>2312</ele>
        <time>2021-08-12T08:23:00.239Z</time>
      </trkpt>
      <trkpt lat="46.87374" lon="8.46751">
        <ele>2313</ele>
        <time>2021-08-12T08:23:01.239Z</time>
      </trkpt>
      <trkpt lat="46.87374" lon="8.46752">
        <ele>2313</ele>
        <time>2021-08-12T08:23:02.239Z</time>
      </trkpt>
      <trkpt lat="46.87373" lon="8.46754">
        <ele>2313</ele>
        <time>2021-08-12T08:23:03.238Z</time>
      </trkpt>
      <trkpt lat="46.87372" lon="8.46755">
        <ele>2312</ele>
        <time>2021-08-12T08:23:04.239Z</time>
      </trkpt>
      <trkpt lat="46.87372" lon="8.46755">
        <ele>2312</ele>
        <time>2021-08-12T08:23:05.238Z</time>
      </trkpt>
      <trkpt lat="46.87371" lon="8.46756">
        <ele>2312</ele>
        <time>2021-08-12T08:23:06.238Z</time>
      </trkpt>
      <trkpt lat="46.8737" lon="8.46757">
        <ele>2311</ele>
        <time>2021-08-12T08:23:07.238Z</time>
      </trkpt>
      <trkpt lat="46.8737" lon="8.46758">
        <ele>2311</ele>
        <time>2021-08-12T08:23:08.238Z</time>
      </trkpt>
      <trkpt lat="46.87369" lon="8.46758">
        <ele>2310</ele>
        <time>2021-08-12T08:23:09.239Z</time>
      </trkpt>
      <trkpt lat="46.87368" lon="8.46759">
        <ele>2310</ele>
        <time>2021-08-12T08:23:10.239Z</time>
      </trkpt>
      <trkpt lat="46.87368" lon="8.46759">
        <ele>2310</ele>
        <time>2021-08-12T08:23:11.239Z</time>
      </trkpt>
      <trkpt lat="46.87367" lon="8.46759">
        <ele>2309</ele>
        <time>2021-08-12T08:23:12.238Z</time>
      </trkpt>
      <trkpt lat="46.87367" lon="8.4676">
        <ele>2309</ele>
        <time>2021-08-12T08:23:13.238Z</time>
      </trkpt>
      <trkpt lat="46.87366" lon="8.46761">
        <ele>2309</ele>
        <time>2021-08-12T08:23:14.238Z</time>
      </trkpt>
      <trkpt lat="46.87366" lon="8.46762">
        <ele>2309</ele>
        <time>2021-08-12T08:23:15.239Z</time>
      </trkpt>
      <trkpt lat="46.87365" lon="8.46762">
        <ele>2308</ele>
        <time>2021-08-12T08:23:16.238Z</time>
      </trkpt>
      <trkpt lat="46.87365" lon="8.46762">
        <ele>2308</ele>
        <time>2021-08-12T08:23:17.238Z</time>
      </trkpt>
      <trkpt lat="46.87364" lon="8.46762">
        <ele>2308</ele>
        <time>2021-08-12T08:23:18.238Z</time>
      </trkpt>
      <trkpt lat="46.87364" lon="8.46763">
        <ele>2309</ele>
        <time>2021-08-12T08:23:19.238Z</time>
      </trkpt>
      <trkpt lat="46.87363" lon="8.46763">
        <ele>2308</ele>
        <time>2021-08-12T08:23:20.238Z</time>
      </trkpt>
      <trkpt lat="46.87363" lon="8.46762">
        <ele>2309</ele>
        <time>2021-08-12T08:23:21.238Z</time>
      </trkpt>
      <trkpt lat="46.87363" lon="8.46762">
        <ele>2309</ele>
        <time>2021-08-12T08:23:22.238Z</time>
      </trkpt>
      <trkpt lat="46.87363" lon="8.46762">
        <ele>2309</ele>
        <time>2021-08-12T08:23:23.238Z</time>
      </trkpt>
      <trkpt lat="46.87362" lon="8.46761">
        <ele>2309</ele>
        <time>2021-08-12T08:23:24.238Z</time>
      </trkpt>
      <trkpt lat="46.87362" lon="8.4676">
        <ele>2309</ele>
        <time>2021-08-12T08:23:25.239Z</time>
      </trkpt>
      <trkpt lat="46.87362" lon="8.46759">
        <ele>2309</ele>
        <time>2021-08-12T08:23:26.238Z</time>
      </trkpt>
      <trkpt lat="46.87362" lon="8.46759">
        <ele>2310</ele>
        <time>2021-08-12T08:23:27.238Z</time>
      </trkpt>
      <trkpt lat="46.87362" lon="8.46759">
        <ele>2310</ele>
        <time>2021-08-12T08:23:28.238Z</time>
      </trkpt>
      <trkpt lat="46.87361" lon="8.46759">
        <ele>2310</ele>
        <time>2021-08-12T08:23:29.238Z</time>
      </trkpt>
      <trkpt lat="46.8736" lon="8.46759">
        <ele>2310</ele>
        <time>2021-08-12T08:23:30.238Z</time>
      </trkpt>
      <trkpt lat="46.8736" lon="8.46759">
        <ele>2310</ele>
        <time>2021-08-12T08:23:31.238Z</time>
      </trkpt>
      <trkpt lat="46.87359" lon="8.46759">
        <ele>2310</ele>
        <time>2021-08-12T08:23:32.238Z</time>
      </trkpt>
      <trkpt lat="46.87359" lon="8.4676">
        <ele>2310</ele>
        <time>2021-08-12T08:23:33.238Z</time>
      </trkpt>
      <trkpt lat="46.87359" lon="8.4676">
        <ele>2310</ele>
        <time>2021-08-12T08:23:34.238Z</time>
      </trkpt>
      <trkpt lat="46.87358" lon="8.46761">
        <ele>2309</ele>
        <time>2021-08-12T08:23:35.239Z</time>
      </trkpt>
      <trkpt lat="46.87358" lon="8.46761">
        <ele>2309</ele>
        <time>2021-08-12T08:23:36.239Z</time>
      </trkpt>
      <trkpt lat="46.87358" lon="8.46762">
        <ele>2308</ele>
        <time>2021-08-12T08:23:37.238Z</time>
      </trkpt>
      <trkpt lat="46.87357" lon="8.46763">
        <ele>2308</ele>
        <time>2021-08-12T08:23:38.238Z</time>
      </trkpt>
      <trkpt lat="46.87356" lon="8.46764">
        <ele>2308</ele>
        <time>2021-08-12T08:23:39.238Z</time>
      </trkpt>
      <trkpt lat="46.87356" lon="8.46764">
        <ele>2307</ele>
        <time>2021-08-12T08:23:40.239Z</time>
      </trkpt>
      <trkpt lat="46.87355" lon="8.46765">
        <ele>2307</ele>
        <time>2021-08-12T08:23:41.239Z</time>
      </trkpt>
      <trkpt lat="46.87355" lon="8.46766">
        <ele>2307</ele>
        <time>2021-08-12T08:23:42.239Z</time>
      </trkpt>
      <trkpt lat="46.87354" lon="8.46766">
        <ele>2307</ele>
        <time>2021-08-12T08:23:43.238Z</time>
      </trkpt>
      <trkpt lat="46.87353" lon="8.46766">
        <ele>2307</ele>
        <time>2021-08-12T08:23:44.238Z</time>
      </trkpt>
      <trkpt lat="46.87352" lon="8.46766">
        <ele>2307</ele>
        <time>2021-08-12T08:23:45.238Z</time>
      </trkpt>
      <trkpt lat="46.87351" lon="8.46767">
        <ele>2307</ele>
        <time>2021-08-12T08:23:46.239Z</time>
      </trkpt>
      <trkpt lat="46.87351" lon="8.46767">
        <ele>2307</ele>
        <time>2021-08-12T08:23:47.238Z</time>
      </trkpt>
      <trkpt lat="46.8735" lon="8.46768">
        <ele>2306</ele>
        <time>2021-08-12T08:23:48.238Z</time>
      </trkpt>
      <trkpt lat="46.87349" lon="8.46769">
        <ele>2306</ele>
        <time>2021-08-12T08:23:49.238Z</time>
      </trkpt>
      <trkpt lat="46.87348" lon="8.46769">
        <ele>2306</ele>
        <time>2021-08-12T08:23:50.238Z</time>
      </trkpt>
      <trkpt lat="46.87348" lon="8.46769">
        <ele>2306</ele>
        <time>2021-08-12T08:23:51.239Z</time>
      </trkpt>
      <trkpt lat="46.87347" lon="8.46769">
        <ele>2306</ele>
        <time>2021-08-12T08:23:52.238Z</time>
      </trkpt>
      <trkpt lat="46.87347" lon="8.46769">
        <ele>2306</ele>
        <time>2021-08-12T08:23:53.238Z</time>
      </trkpt>
      <trkpt lat="46.87346" lon="8.4677">
        <ele>2305</ele>
        <time>2021-08-12T08:23:54.238Z</time>
      </trkpt>
      <trkpt lat="46.87345" lon="8.4677">
        <ele>2305</ele>
        <time>2021-08-12T08:23:55.239Z</time>
      </trkpt>
      <trkpt lat="46.87345" lon="8.46771">
        <ele>2303</ele>
        <time>2021-08-12T08:23:56.239Z</time>
      </trkpt>
      <trkpt lat="46.87344" lon="8.46771">
        <ele>2302</ele>
        <time>2021-08-12T08:23:57.239Z</time>
      </trkpt>
      <trkpt lat="46.87344" lon="8.46771">
        <ele>2302</ele>
        <time>2021-08-12T08:23:58.238Z</time>
      </trkpt>
      <trkpt lat="46.87343" lon="8.46771">
        <ele>2301</ele>
        <time>2021-08-12T08:23:59.238Z</time>
      </trkpt>
      <trkpt lat="46.87342" lon="8.46771">
        <ele>2301</ele>
        <time>2021-08-12T08:24:00.238Z</time>
      </trkpt>
      <trkpt lat="46.87341" lon="8.46771">
        <ele>2301</ele>
        <time>2021-08-12T08:24:01.239Z</time>
      </trkpt>
      <trkpt lat="46.8734" lon="8.46771">
        <ele>2302</ele>
        <time>2021-08-12T08:24:02.239Z</time>
      </trkpt>
      <trkpt lat="46.87339" lon="8.46772">
        <ele>2302</ele>
        <time>2021-08-12T08:24:03.239Z</time>
      </trkpt>
      <trkpt lat="46.87338" lon="8.46772">
        <ele>2302</ele>
        <time>2021-08-12T08:24:04.239Z</time>
      </trkpt>
      <trkpt lat="46.87337" lon="8.46773">
        <ele>2302</ele>
        <time>2021-08-12T08:24:05.239Z</time>
      </trkpt>
      <trkpt lat="46.87337" lon="8.46774">
        <ele>2302</ele>
        <time>2021-08-12T08:24:06.239Z</time>
      </trkpt>
      <trkpt lat="46.87336" lon="8.46774">
        <ele>2302</ele>
        <time>2021-08-12T08:24:07.238Z</time>
      </trkpt>
      <trkpt lat="46.87336" lon="8.46775">
        <ele>2301</ele>
        <time>2021-08-12T08:24:08.238Z</time>
      </trkpt>
      <trkpt lat="46.87335" lon="8.46774">
        <ele>2301</ele>
        <time>2021-08-12T08:24:09.239Z</time>
      </trkpt>
      <trkpt lat="46.87335" lon="8.46775">
        <ele>2300</ele>
        <time>2021-08-12T08:24:10.239Z</time>
      </trkpt>
      <trkpt lat="46.87334" lon="8.46775">
        <ele>2300</ele>
        <time>2021-08-12T08:24:11.239Z</time>
      </trkpt>
      <trkpt lat="46.87333" lon="8.46776">
        <ele>2300</ele>
        <time>2021-08-12T08:24:12.239Z</time>
      </trkpt>
      <trkpt lat="46.87333" lon="8.46777">
        <ele>2300</ele>
        <time>2021-08-12T08:24:13.239Z</time>
      </trkpt>
      <trkpt lat="46.87333" lon="8.46778">
        <ele>2300</ele>
        <time>2021-08-12T08:24:14.238Z</time>
      </trkpt>
      <trkpt lat="46.87332" lon="8.46779">
        <ele>2300</ele>
        <time>2021-08-12T08:24:15.239Z</time>
      </trkpt>
      <trkpt lat="46.87331" lon="8.4678">
        <ele>2300</ele>
        <time>2021-08-12T08:24:16.238Z</time>
      </trkpt>
      <trkpt lat="46.8733" lon="8.46781">
        <ele>2300</ele>
        <time>2021-08-12T08:24:17.238Z</time>
      </trkpt>
      <trkpt lat="46.8733" lon="8.46782">
        <ele>2299</ele>
        <time>2021-08-12T08:24:18.239Z</time>
      </trkpt>
      <trkpt lat="46.87329" lon="8.46783">
        <ele>2299</ele>
        <time>2021-08-12T08:24:19.238Z</time>
      </trkpt>
      <trkpt lat="46.87328" lon="8.46784">
        <ele>2298</ele>
        <time>2021-08-12T08:24:20.238Z</time>
      </trkpt>
      <trkpt lat="46.87328" lon="8.46784">
        <ele>2298</ele>
        <time>2021-08-12T08:24:21.239Z</time>
      </trkpt>
      <trkpt lat="46.87327" lon="8.46785">
        <ele>2298</ele>
        <time>2021-08-12T08:24:22.239Z</time>
      </trkpt>
      <trkpt lat="46.87326" lon="8.46786">
        <ele>2298</ele>
        <time>2021-08-12T08:24:23.239Z</time>
      </trkpt>
      <trkpt lat="46.87325" lon="8.46787">
        <ele>2298</ele>
        <time>2021-08-12T08:24:24.238Z</time>
      </trkpt>
      <trkpt lat="46.87325" lon="8.46789">
        <ele>2297</ele>
        <time>2021-08-12T08:24:25.239Z</time>
      </trkpt>
      <trkpt lat="46.87324" lon="8.4679">
        <ele>2297</ele>
        <time>2021-08-12T08:24:26.239Z</time>
      </trkpt>
      <trkpt lat="46.87323" lon="8.46791">
        <ele>2296</ele>
        <time>2021-08-12T08:24:27.239Z</time>
      </trkpt>
      <trkpt lat="46.87323" lon="8.46792">
        <ele>2295</ele>
        <time>2021-08-12T08:24:28.239Z</time>
      </trkpt>
      <trkpt lat="46.87322" lon="8.46794">
        <ele>2295</ele>
        <time>2021-08-12T08:24:29.239Z</time>
      </trkpt>
      <trkpt lat="46.87322" lon="8.46795">
        <ele>2294</ele>
        <time>2021-08-12T08:24:30.239Z</time>
      </trkpt>
      <trkpt lat="46.87321" lon="8.46796">
        <ele>2294</ele>
        <time>2021-08-12T08:24:31.239Z</time>
      </trkpt>
      <trkpt lat="46.87321" lon="8.46797">
        <ele>2293</ele>
        <time>2021-08-12T08:24:32.238Z</time>
      </trkpt>
      <trkpt lat="46.8732" lon="8.46798">
        <ele>2293</ele>
        <time>2021-08-12T08:24:33.238Z</time>
      </trkpt>
      <trkpt lat="46.8732" lon="8.46799">
        <ele>2293</ele>
        <time>2021-08-12T08:24:34.239Z</time>
      </trkpt>
      <trkpt lat="46.87319" lon="8.468">
        <ele>2293</ele>
        <time>2021-08-12T08:24:35.239Z</time>
      </trkpt>
      <trkpt lat="46.87318" lon="8.468">
        <ele>2293</ele>
        <time>2021-08-12T08:24:36.239Z</time>
      </trkpt>
      <trkpt lat="46.87318" lon="8.46801">
        <ele>2293</ele>
        <time>2021-08-12T08:24:37.238Z</time>
      </trkpt>
      <trkpt lat="46.87317" lon="8.46802">
        <ele>2293</ele>
        <time>2021-08-12T08:24:38.238Z</time>
      </trkpt>
      <trkpt lat="46.87317" lon="8.46803">
        <ele>2293</ele>
        <time>2021-08-12T08:24:39.239Z</time>
      </trkpt>
      <trkpt lat="46.87316" lon="8.46804">
        <ele>2293</ele>
        <time>2021-08-12T08:24:40.239Z</time>
      </trkpt>
      <trkpt lat="46.87315" lon="8.46805">
        <ele>2293</ele>
        <time>2021-08-12T08:24:41.238Z</time>
      </trkpt>
      <trkpt lat="46.87315" lon="8.46805">
        <ele>2293</ele>
        <time>2021-08-12T08:24:42.238Z</time>
      </trkpt>
      <trkpt lat="46.87315" lon="8.46807">
        <ele>2293</ele>
        <time>2021-08-12T08:24:43.238Z</time>
      </trkpt>
      <trkpt lat="46.87314" lon="8.46807">
        <ele>2293</ele>
        <time>2021-08-12T08:24:44.238Z</time>
      </trkpt>
      <trkpt lat="46.87314" lon="8.46808">
        <ele>2292</ele>
        <time>2021-08-12T08:24:45.239Z</time>
      </trkpt>
      <trkpt lat="46.87313" lon="8.46809">
        <ele>2292</ele>
        <time>2021-08-12T08:24:46.238Z</time>
      </trkpt>
      <trkpt lat="46.87313" lon="8.46809">
        <ele>2291</ele>
        <time>2021-08-12T08:24:47.239Z</time>
      </trkpt>
      <trkpt lat="46.87312" lon="8.46809">
        <ele>2291</ele>
        <time>2021-08-12T08:24:48.238Z</time>
      </trkpt>
      <trkpt lat="46.87311" lon="8.4681">
        <ele>2291</ele>
        <time>2021-08-12T08:24:49.238Z</time>
      </trkpt>
      <trkpt lat="46.87311" lon="8.4681">
        <ele>2291</ele>
        <time>2021-08-12T08:24:50.239Z</time>
      </trkpt>
      <trkpt lat="46.8731" lon="8.46811">
        <ele>2291</ele>
        <time>2021-08-12T08:24:51.238Z</time>
      </trkpt>
      <trkpt lat="46.87309" lon="8.46812">
        <ele>2291</ele>
        <time>2021-08-12T08:24:52.239Z</time>
      </trkpt>
      <trkpt lat="46.87308" lon="8.46813">
        <ele>2291</ele>
        <time>2021-08-12T08:24:53.239Z</time>
      </trkpt>
      <trkpt lat="46.87308" lon="8.46814">
        <ele>2291</ele>
        <time>2021-08-12T08:24:54.239Z</time>
      </trkpt>
      <trkpt lat="46.87307" lon="8.46816">
        <ele>2290</ele>
        <time>2021-08-12T08:24:55.238Z</time>
      </trkpt>
      <trkpt lat="46.87306" lon="8.46816">
        <ele>2290</ele>
        <time>2021-08-12T08:24:56.239Z</time>
      </trkpt>
      <trkpt lat="46.87306" lon="8.46817">
        <ele>2290</ele>
        <time>2021-08-12T08:24:57.238Z</time>
      </trkpt>
      <trkpt lat="46.87305" lon="8.46818">
        <ele>2290</ele>
        <time>2021-08-12T08:24:58.238Z</time>
      </trkpt>
      <trkpt lat="46.87304" lon="8.46819">
        <ele>2290</ele>
        <time>2021-08-12T08:24:59.239Z</time>
      </trkpt>
      <trkpt lat="46.87304" lon="8.4682">
        <ele>2289</ele>
        <time>2021-08-12T08:25:00.239Z</time>
      </trkpt>
      <trkpt lat="46.87303" lon="8.46821">
        <ele>2289</ele>
        <time>2021-08-12T08:25:01.239Z</time>
      </trkpt>
      <trkpt lat="46.87303" lon="8.46823">
        <ele>2289</ele>
        <time>2021-08-12T08:25:02.239Z</time>
      </trkpt>
      <trkpt lat="46.87302" lon="8.46824">
        <ele>2289</ele>
        <time>2021-08-12T08:25:03.239Z</time>
      </trkpt>
      <trkpt lat="46.87301" lon="8.46825">
        <ele>2289</ele>
        <time>2021-08-12T08:25:04.239Z</time>
      </trkpt>
      <trkpt lat="46.87301" lon="8.46827">
        <ele>2290</ele>
        <time>2021-08-12T08:25:05.239Z</time>
      </trkpt>
      <trkpt lat="46.873" lon="8.46828">
        <ele>2289</ele>
        <time>2021-08-12T08:25:06.238Z</time>
      </trkpt>
      <trkpt lat="46.873" lon="8.46829">
        <ele>2289</ele>
        <time>2021-08-12T08:25:07.239Z</time>
      </trkpt>
      <trkpt lat="46.87299" lon="8.4683">
        <ele>2289</ele>
        <time>2021-08-12T08:25:08.239Z</time>
      </trkpt>
      <trkpt lat="46.87298" lon="8.46831">
        <ele>2289</ele>
        <time>2021-08-12T08:25:09.239Z</time>
      </trkpt>
      <trkpt lat="46.87297" lon="8.46833">
        <ele>2289</ele>
        <time>2021-08-12T08:25:10.239Z</time>
      </trkpt>
      <trkpt lat="46.87297" lon="8.46835">
        <ele>2289</ele>
        <time>2021-08-12T08:25:11.239Z</time>
      </trkpt>
      <trkpt lat="46.87296" lon="8.46836">
        <ele>2289</ele>
        <time>2021-08-12T08:25:12.238Z</time>
      </trkpt>
      <trkpt lat="46.87295" lon="8.46838">
        <ele>2288</ele>
        <time>2021-08-12T08:25:13.239Z</time>
      </trkpt>
      <trkpt lat="46.87295" lon="8.46839">
        <ele>2288</ele>
        <time>2021-08-12T08:25:14.238Z</time>
      </trkpt>
      <trkpt lat="46.87294" lon="8.4684">
        <ele>2287</ele>
        <time>2021-08-12T08:25:15.239Z</time>
      </trkpt>
      <trkpt lat="46.87294" lon="8.46842">
        <ele>2287</ele>
        <time>2021-08-12T08:25:16.239Z</time>
      </trkpt>
      <trkpt lat="46.87293" lon="8.46843">
        <ele>2286</ele>
        <time>2021-08-12T08:25:17.238Z</time>
      </trkpt>
      <trkpt lat="46.87293" lon="8.46845">
        <ele>2285</ele>
        <time>2021-08-12T08:25:18.238Z</time>
      </trkpt>
      <trkpt lat="46.87292" lon="8.46846">
        <ele>2285</ele>
        <time>2021-08-12T08:25:19.239Z</time>
      </trkpt>
      <trkpt lat="46.87291" lon="8.46847">
        <ele>2285</ele>
        <time>2021-08-12T08:25:20.239Z</time>
      </trkpt>
      <trkpt lat="46.8729" lon="8.46848">
        <ele>2285</ele>
        <time>2021-08-12T08:25:21.239Z</time>
      </trkpt>
      <trkpt lat="46.87289" lon="8.46849">
        <ele>2285</ele>
        <time>2021-08-12T08:25:22.239Z</time>
      </trkpt>
      <trkpt lat="46.87288" lon="8.46849">
        <ele>2285</ele>
        <time>2021-08-12T08:25:23.238Z</time>
      </trkpt>
      <trkpt lat="46.87287" lon="8.4685">
        <ele>2285</ele>
        <time>2021-08-12T08:25:24.238Z</time>
      </trkpt>
      <trkpt lat="46.87286" lon="8.46852">
        <ele>2285</ele>
        <time>2021-08-12T08:25:25.238Z</time>
      </trkpt>
      <trkpt lat="46.87286" lon="8.46852">
        <ele>2285</ele>
        <time>2021-08-12T08:25:26.239Z</time>
      </trkpt>
      <trkpt lat="46.87284" lon="8.46853">
        <ele>2285</ele>
        <time>2021-08-12T08:25:27.239Z</time>
      </trkpt>
      <trkpt lat="46.87284" lon="8.46853">
        <ele>2286</ele>
        <time>2021-08-12T08:25:28.239Z</time>
      </trkpt>
      <trkpt lat="46.87283" lon="8.46854">
        <ele>2286</ele>
        <time>2021-08-12T08:25:29.239Z</time>
      </trkpt>
      <trkpt lat="46.87281" lon="8.46854">
        <ele>2285</ele>
        <time>2021-08-12T08:25:30.239Z</time>
      </trkpt>
      <trkpt lat="46.8728" lon="8.46854">
        <ele>2285</ele>
        <time>2021-08-12T08:25:31.239Z</time>
      </trkpt>
      <trkpt lat="46.87279" lon="8.46855">
        <ele>2285</ele>
        <time>2021-08-12T08:25:32.238Z</time>
      </trkpt>
      <trkpt lat="46.87278" lon="8.46855">
        <ele>2284</ele>
        <time>2021-08-12T08:25:33.239Z</time>
      </trkpt>
      <trkpt lat="46.87277" lon="8.46856">
        <ele>2284</ele>
        <time>2021-08-12T08:25:34.239Z</time>
      </trkpt>
      <trkpt lat="46.87275" lon="8.46856">
        <ele>2284</ele>
        <time>2021-08-12T08:25:35.239Z</time>
      </trkpt>
      <trkpt lat="46.87274" lon="8.46856">
        <ele>2283</ele>
        <time>2021-08-12T08:25:36.238Z</time>
      </trkpt>
      <trkpt lat="46.87273" lon="8.46857">
        <ele>2283</ele>
        <time>2021-08-12T08:25:37.239Z</time>
      </trkpt>
      <trkpt lat="46.87271" lon="8.46857">
        <ele>2283</ele>
        <time>2021-08-12T08:25:38.238Z</time>
      </trkpt>
      <trkpt lat="46.8727" lon="8.46857">
        <ele>2283</ele>
        <time>2021-08-12T08:25:39.238Z</time>
      </trkpt>
      <trkpt lat="46.87269" lon="8.46857">
        <ele>2283</ele>
        <time>2021-08-12T08:25:40.239Z</time>
      </trkpt>
      <trkpt lat="46.87268" lon="8.46857">
        <ele>2283</ele>
        <time>2021-08-12T08:25:41.239Z</time>
      </trkpt>
      <trkpt lat="46.87267" lon="8.46858">
        <ele>2282</ele>
        <time>2021-08-12T08:25:42.238Z</time>
      </trkpt>
      <trkpt lat="46.87266" lon="8.46858">
        <ele>2282</ele>
        <time>2021-08-12T08:25:43.238Z</time>
      </trkpt>
      <trkpt lat="46.87265" lon="8.46859">
        <ele>2282</ele>
        <time>2021-08-12T08:25:44.239Z</time>
      </trkpt>
      <trkpt lat="46.87264" lon="8.4686">
        <ele>2281</ele>
        <time>2021-08-12T08:25:45.239Z</time>
      </trkpt>
      <trkpt lat="46.87263" lon="8.46862">
        <ele>2280</ele>
        <time>2021-08-12T08:25:46.239Z</time>
      </trkpt>
      <trkpt lat="46.87262" lon="8.46863">
        <ele>2280</ele>
        <time>2021-08-12T08:25:47.238Z</time>
      </trkpt>
      <trkpt lat="46.87261" lon="8.46864">
        <ele>2280</ele>
        <time>2021-08-12T08:25:48.238Z</time>
      </trkpt>
      <trkpt lat="46.87261" lon="8.46865">
        <ele>2280</ele>
        <time>2021-08-12T08:25:49.238Z</time>
      </trkpt>
      <trkpt lat="46.8726" lon="8.46866">
        <ele>2280</ele>
        <time>2021-08-12T08:25:50.238Z</time>
      </trkpt>
      <trkpt lat="46.87259" lon="8.46867">
        <ele>2280</ele>
        <time>2021-08-12T08:25:51.239Z</time>
      </trkpt>
      <trkpt lat="46.87258" lon="8.46868">
        <ele>2281</ele>
        <time>2021-08-12T08:25:52.239Z</time>
      </trkpt>
      <trkpt lat="46.87258" lon="8.46869">
        <ele>2281</ele>
        <time>2021-08-12T08:25:53.238Z</time>
      </trkpt>
      <trkpt lat="46.87258" lon="8.4687">
        <ele>2280</ele>
        <time>2021-08-12T08:25:54.238Z</time>
      </trkpt>
      <trkpt lat="46.87257" lon="8.46871">
        <ele>2280</ele>
        <time>2021-08-12T08:25:55.239Z</time>
      </trkpt>
      <trkpt lat="46.87256" lon="8.46872">
        <ele>2280</ele>
        <time>2021-08-12T08:25:56.239Z</time>
      </trkpt>
      <trkpt lat="46.87255" lon="8.46872">
        <ele>2280</ele>
        <time>2021-08-12T08:25:57.238Z</time>
      </trkpt>
      <trkpt lat="46.87254" lon="8.46873">
        <ele>2280</ele>
        <time>2021-08-12T08:25:58.238Z</time>
      </trkpt>
      <trkpt lat="46.87253" lon="8.46873">
        <ele>2280</ele>
        <time>2021-08-12T08:25:59.238Z</time>
      </trkpt>
      <trkpt lat="46.87252" lon="8.46874">
        <ele>2280</ele>
        <time>2021-08-12T08:26:00.239Z</time>
      </trkpt>
      <trkpt lat="46.87251" lon="8.46875">
        <ele>2280</ele>
        <time>2021-08-12T08:26:01.239Z</time>
      </trkpt>
      <trkpt lat="46.87251" lon="8.46876">
        <ele>2280</ele>
        <time>2021-08-12T08:26:02.239Z</time>
      </trkpt>
      <trkpt lat="46.8725" lon="8.46876">
        <ele>2280</ele>
        <time>2021-08-12T08:26:03.239Z</time>
      </trkpt>
      <trkpt lat="46.87249" lon="8.46877">
        <ele>2280</ele>
        <time>2021-08-12T08:26:04.239Z</time>
      </trkpt>
      <trkpt lat="46.87248" lon="8.46877">
        <ele>2280</ele>
        <time>2021-08-12T08:26:05.238Z</time>
      </trkpt>
      <trkpt lat="46.87248" lon="8.46878">
        <ele>2280</ele>
        <time>2021-08-12T08:26:06.238Z</time>
      </trkpt>
      <trkpt lat="46.87247" lon="8.46879">
        <ele>2279</ele>
        <time>2021-08-12T08:26:07.238Z</time>
      </trkpt>
      <trkpt lat="46.87246" lon="8.46879">
        <ele>2279</ele>
        <time>2021-08-12T08:26:08.239Z</time>
      </trkpt>
      <trkpt lat="46.87245" lon="8.4688">
        <ele>2279</ele>
        <time>2021-08-12T08:26:09.239Z</time>
      </trkpt>
      <trkpt lat="46.87244" lon="8.46881">
        <ele>2279</ele>
        <time>2021-08-12T08:26:10.239Z</time>
      </trkpt>
      <trkpt lat="46.87243" lon="8.46882">
        <ele>2279</ele>
        <time>2021-08-12T08:26:11.239Z</time>
      </trkpt>
      <trkpt lat="46.87242" lon="8.46883">
        <ele>2280</ele>
        <time>2021-08-12T08:26:12.239Z</time>
      </trkpt>
      <trkpt lat="46.87241" lon="8.46884">
        <ele>2280</ele>
        <time>2021-08-12T08:26:13.238Z</time>
      </trkpt>
      <trkpt lat="46.87241" lon="8.46885">
        <ele>2280</ele>
        <time>2021-08-12T08:26:14.238Z</time>
      </trkpt>
      <trkpt lat="46.8724" lon="8.46886">
        <ele>2280</ele>
        <time>2021-08-12T08:26:15.239Z</time>
      </trkpt>
      <trkpt lat="46.87239" lon="8.46886">
        <ele>2280</ele>
        <time>2021-08-12T08:26:16.238Z</time>
      </trkpt>
      <trkpt lat="46.87238" lon="8.46887">
        <ele>2279</ele>
        <time>2021-08-12T08:26:17.239Z</time>
      </trkpt>
      <trkpt lat="46.87237" lon="8.46887">
        <ele>2279</ele>
        <time>2021-08-12T08:26:18.239Z</time>
      </trkpt>
      <trkpt lat="46.87237" lon="8.46887">
        <ele>2279</ele>
        <time>2021-08-12T08:26:19.238Z</time>
      </trkpt>
      <trkpt lat="46.87236" lon="8.46888">
        <ele>2278</ele>
        <time>2021-08-12T08:26:20.239Z</time>
      </trkpt>
      <trkpt lat="46.87236" lon="8.46888">
        <ele>2278</ele>
        <time>2021-08-12T08:26:21.239Z</time>
      </trkpt>
      <trkpt lat="46.87235" lon="8.46889">
        <ele>2278</ele>
        <time>2021-08-12T08:26:22.239Z</time>
      </trkpt>
      <trkpt lat="46.87235" lon="8.4689">
        <ele>2277</ele>
        <time>2021-08-12T08:26:23.239Z</time>
      </trkpt>
      <trkpt lat="46.87235" lon="8.46892">
        <ele>2277</ele>
        <time>2021-08-12T08:26:24.239Z</time>
      </trkpt>
      <trkpt lat="46.87234" lon="8.46893">
        <ele>2277</ele>
        <time>2021-08-12T08:26:25.239Z</time>
      </trkpt>
      <trkpt lat="46.87234" lon="8.46893">
        <ele>2278</ele>
        <time>2021-08-12T08:26:26.239Z</time>
      </trkpt>
      <trkpt lat="46.87233" lon="8.46895">
        <ele>2277</ele>
        <time>2021-08-12T08:26:27.239Z</time>
      </trkpt>
      <trkpt lat="46.87232" lon="8.46896">
        <ele>2277</ele>
        <time>2021-08-12T08:26:28.239Z</time>
      </trkpt>
      <trkpt lat="46.87232" lon="8.46896">
        <ele>2276</ele>
        <time>2021-08-12T08:26:29.238Z</time>
      </trkpt>
      <trkpt lat="46.87231" lon="8.46897">
        <ele>2277</ele>
        <time>2021-08-12T08:26:30.239Z</time>
      </trkpt>
      <trkpt lat="46.8723" lon="8.46898">
        <ele>2277</ele>
        <time>2021-08-12T08:26:31.239Z</time>
      </trkpt>
      <trkpt lat="46.8723" lon="8.46898">
        <ele>2277</ele>
        <time>2021-08-12T08:26:32.239Z</time>
      </trkpt>
      <trkpt lat="46.87229" lon="8.46898">
        <ele>2277</ele>
        <time>2021-08-12T08:26:33.238Z</time>
      </trkpt>
      <trkpt lat="46.87228" lon="8.46899">
        <ele>2277</ele>
        <time>2021-08-12T08:26:34.238Z</time>
      </trkpt>
      <trkpt lat="46.87227" lon="8.469">
        <ele>2277</ele>
        <time>2021-08-12T08:26:35.239Z</time>
      </trkpt>
      <trkpt lat="46.87227" lon="8.469">
        <ele>2277</ele>
        <time>2021-08-12T08:26:36.239Z</time>
      </trkpt>
      <trkpt lat="46.87226" lon="8.469">
        <ele>2277</ele>
        <time>2021-08-12T08:26:37.238Z</time>
      </trkpt>
      <trkpt lat="46.87226" lon="8.46901">
        <ele>2277</ele>
        <time>2021-08-12T08:26:38.239Z</time>
      </trkpt>
      <trkpt lat="46.87226" lon="8.46902">
        <ele>2277</ele>
        <time>2021-08-12T08:26:39.239Z</time>
      </trkpt>
      <trkpt lat="46.87225" lon="8.46903">
        <ele>2277</ele>
        <time>2021-08-12T08:26:40.239Z</time>
      </trkpt>
      <trkpt lat="46.87225" lon="8.46903">
        <ele>2277</ele>
        <time>2021-08-12T08:26:41.239Z</time>
      </trkpt>
      <trkpt lat="46.87224" lon="8.46905">
        <ele>2277</ele>
        <time>2021-08-12T08:26:42.239Z</time>
      </trkpt>
      <trkpt lat="46.87224" lon="8.46906">
        <ele>2277</ele>
        <time>2021-08-12T08:26:43.238Z</time>
      </trkpt>
      <trkpt lat="46.87223" lon="8.46907">
        <ele>2277</ele>
        <time>2021-08-12T08:26:44.239Z</time>
      </trkpt>
      <trkpt lat="46.87223" lon="8.46906">
        <ele>2277</ele>
        <time>2021-08-12T08:26:45.239Z</time>
      </trkpt>
      <trkpt lat="46.87222" lon="8.46905">
        <ele>2277</ele>
        <time>2021-08-12T08:26:46.238Z</time>
      </trkpt>
      <trkpt lat="46.87222" lon="8.46906">
        <ele>2277</ele>
        <time>2021-08-12T08:26:47.239Z</time>
      </trkpt>
      <trkpt lat="46.87222" lon="8.46906">
        <ele>2277</ele>
        <time>2021-08-12T08:26:48.239Z</time>
      </trkpt>
      <trkpt lat="46.87221" lon="8.46906">
        <ele>2274</ele>
        <time>2021-08-12T08:26:49.240Z</time>
      </trkpt>
      <trkpt lat="46.87221" lon="8.46906">
        <ele>2274</ele>
        <time>2021-08-12T08:26:50.239Z</time>
      </trkpt>
      <trkpt lat="46.87221" lon="8.46906">
        <ele>2273</ele>
        <time>2021-08-12T08:26:51.240Z</time>
      </trkpt>
      <trkpt lat="46.8722" lon="8.46906">
        <ele>2273</ele>
        <time>2021-08-12T08:26:52.239Z</time>
      </trkpt>
      <trkpt lat="46.8722" lon="8.46906">
        <ele>2272</ele>
        <time>2021-08-12T08:26:53.239Z</time>
      </trkpt>
      <trkpt lat="46.87219" lon="8.46907">
        <ele>2272</ele>
        <time>2021-08-12T08:26:54.240Z</time>
      </trkpt>
      <trkpt lat="46.87219" lon="8.46907">
        <ele>2271</ele>
        <time>2021-08-12T08:26:55.239Z</time>
      </trkpt>
      <trkpt lat="46.87219" lon="8.46907">
        <ele>2271</ele>
        <time>2021-08-12T08:26:56.239Z</time>
      </trkpt>
      <trkpt lat="46.87218" lon="8.46908">
        <ele>2271</ele>
        <time>2021-08-12T08:26:57.240Z</time>
      </trkpt>
      <trkpt lat="46.87218" lon="8.46908">
        <ele>2271</ele>
        <time>2021-08-12T08:26:58.240Z</time>
      </trkpt>
      <trkpt lat="46.87218" lon="8.46909">
        <ele>2271</ele>
        <time>2021-08-12T08:26:59.240Z</time>
      </trkpt>
      <trkpt lat="46.87218" lon="8.46909">
        <ele>2271</ele>
        <time>2021-08-12T08:27:00.240Z</time>
      </trkpt>
      <trkpt lat="46.87218" lon="8.4691">
        <ele>2271</ele>
        <time>2021-08-12T08:27:01.240Z</time>
      </trkpt>
      <trkpt lat="46.87218" lon="8.46911">
        <ele>2271</ele>
        <time>2021-08-12T08:27:02.240Z</time>
      </trkpt>
      <trkpt lat="46.87218" lon="8.46913">
        <ele>2271</ele>
        <time>2021-08-12T08:27:03.239Z</time>
      </trkpt>
      <trkpt lat="46.87218" lon="8.46913">
        <ele>2272</ele>
        <time>2021-08-12T08:27:04.240Z</time>
      </trkpt>
      <trkpt lat="46.87217" lon="8.46914">
        <ele>2272</ele>
        <time>2021-08-12T08:27:05.239Z</time>
      </trkpt>
      <trkpt lat="46.87217" lon="8.46915">
        <ele>2273</ele>
        <time>2021-08-12T08:27:06.240Z</time>
      </trkpt>
      <trkpt lat="46.87217" lon="8.46915">
        <ele>2273</ele>
        <time>2021-08-12T08:27:07.240Z</time>
      </trkpt>
      <trkpt lat="46.87216" lon="8.46916">
        <ele>2273</ele>
        <time>2021-08-12T08:27:08.239Z</time>
      </trkpt>
      <trkpt lat="46.87216" lon="8.46916">
        <ele>2273</ele>
        <time>2021-08-12T08:27:09.240Z</time>
      </trkpt>
      <trkpt lat="46.87216" lon="8.46917">
        <ele>2273</ele>
        <time>2021-08-12T08:27:10.240Z</time>
      </trkpt>
      <trkpt lat="46.87215" lon="8.46918">
        <ele>2273</ele>
        <time>2021-08-12T08:27:11.240Z</time>
      </trkpt>
      <trkpt lat="46.87215" lon="8.46918">
        <ele>2273</ele>
        <time>2021-08-12T08:27:12.239Z</time>
      </trkpt>
      <trkpt lat="46.87214" lon="8.46919">
        <ele>2273</ele>
        <time>2021-08-12T08:27:13.239Z</time>
      </trkpt>
      <trkpt lat="46.87213" lon="8.46919">
        <ele>2273</ele>
        <time>2021-08-12T08:27:14.240Z</time>
      </trkpt>
      <trkpt lat="46.87213" lon="8.46919">
        <ele>2273</ele>
        <time>2021-08-12T08:27:15.239Z</time>
      </trkpt>
      <trkpt lat="46.87213" lon="8.4692">
        <ele>2272</ele>
        <time>2021-08-12T08:27:16.239Z</time>
      </trkpt>
    </trkseg>
  </trk>
</gpx>